Aeroporto :
LOGIN :

Iscrizione | Disclaimer

   EN    FR    IT 

 










Sommario :    VFR   VFR Marginale   IFR   IFR Intensivo   IFR Molto Intensivo
Visibilità : 
Base nubi : 
>= 8 km
>= 3000ft
5 / 8 km
1000 / 3000 ft
1500m / 5 km
500 / 1000 ft
800 / 1500m
200 / 500 ft
< 800m
< 200 ft
Simboli :   Temporali  Nebbia  Neve Forte  Precipitazioni Forti  Vento > 20 kt
SIGMETs :   Varie  Temporali  Ghiacco  Turbolenza  Onda orograficha  Ceneri Vulcaniche







- Altitudine del aeroporto : 11 ft
- Codice IATA : MJV


LELC - Murcia San Javier

ULTIMO METAR :
  • 101700Z 05003KT CAVOK 15/11 Q1026 NOSIG

METARs OBSOLETI :
  • 101630Z 06003KT CAVOK 16/12 Q1026 NOSIG
  • 101600Z 06003KT 030V100 CAVOK 17/12 Q1026 NOSIG
  • 101530Z 07003KT 030V110 CAVOK 17/12 Q1026 NOSIG
  • 101500Z 07004KT 030V120 CAVOK 17/12 Q1026 NOSIG
  • 101430Z 07004KT 030V120 CAVOK 17/12 Q1026 NOSIG

TAF TAF LELC
Valido dal 10 a 12 ore il 11 a 12 ore UTC


101100Z 1012/1112 07010KT 9999 FEW035 TX19/1013Z TN09/1106Z
BECMG 1016/1019 33005KT
PROB30
TEMPO 1102/1108 4000 BR BKN005
Nessun NOTAM noto per questo aeroporto.
1 SIGMET conosciuto per la FIR Barcelona (LECB) :
 
Forte onda orograficha
LECB SIGMET 6 VALID 101500/101800 LEVA
LECB BARCELONA FIR/UIR SEV MTW OBS AT 1436Z N OF LINE N4207 E00152 - N4156 E00323 SFC-060/FL380 STNR NC=



MetMap, La meteo Aeronautica in un colpo d'occhio ! - Copyright ORBIFLY Dicembre 2007 - Disclaimer

ORBIFLY MET'MAP TEAM :

Programmazione e sviluppo : Alexandra Zaïnal
Concezione e sviluppo : Baudouin d'Aumeries
Co-Programmazione e sviluppo : Marc-Olivier Méhu
Supporto tecnico e logistico : Manuel Goepfert
Aiuto per la traduzione : Arnaldo La Scala

Contatto : metmap@orbifly.com




FONTI E CREDITI :

   NOAA